Detailed Flight Report of Safa INALTEKIN ;
Number CXD159 
Departure Aerodrome LTFJ 
Arrival Aerodrome LYTV

Map generated by the Great Circle Mapper - copyright © Karl L. Swartz.

Pilot In Command CXD159 : Safa Inaltekin
Aircraft B738 / TC-KRD
Date Of Flight 2019-11-03
Departure Time 11:35 UTC
Arrival Time 13:23 UTC
Block Time 01:48
Distance 537 Nm.
Used Fuel 9,226 Lbs.
   
Detailed Flight Log [2019/11/03 11:34:00]
Flight IATA:C159
Pilot Number:159
Company ICAO:CXD
Aircraft Type:B738
Aircraft Registration:TC-KRD
Departing Airport: LTFJ
Destination Airport: LYTV
Alternate Airport:LDDU
Online: VATSIM
Route:VADE1J VADEN P92 MAVAR UY400 RETRA UL604 POD POD1RD
Flight Level:FL380
No pause
11:34 Zero fuel Weight: 128076 Lbs, Fuel Weight: 13379 Lbs
11:34 VATSIM:LTFJ 031120Z 24007KT 190V260 CAVOK 19/08 Q1016 NOSIG
11:34 VATSIM:LYTV 031100Z 15017KT 120V180 7000 -SHRA FEW013 SCT020TCU SCT023 18/17 Q1006 TEMPO 4000 TSRA FEW013 FEW020CB BKN030
11:40 Parking Brakes off
11:55 VR= 155 Knots
11:55 V2= 164 Knots
11:55 Take-off
11:55 Take off Weight: 140679 Lbs
11:55 Wind: 049º @ 020 Knots Heading: 244º
11:55 POS N40º 53´ 47´´ E029º 18´ 12´´
11:55 N11 100 N12 100
11:55 Gear Up: 166 Knots
11:55 Flaps:5º at 166 Knots
11:56 Flaps:2º at 170 Knots
11:56 Flaps:1º at 172 Knot
s
11:57 Flaps:Up at 204 Knots
12:10 Wind:272º@013 Knots Heading: 316º Ground Speed: 454 Knots Altitude 31040 ft
12:15 TOC
12:15 Fuel Weight: 8946 Lb
12:25 Wind:278º@029 Knots Heading: 269º Ground Speed: 423 Knots Altitude 38090 ft
12:40 Wind:271º@039 Knots Heading: 271º Ground Speed: 411 Knots Altitude 38100 ft
12:49 TOD
12:49 Fuel Weight: 6236 Lb
12:55 Wind:261º@038 Knots Heading: 275º Ground Speed: 402 Knots Altitude 32808 ft
13:10 Wind:195º@009 Knots Heading: 215º Ground Speed: 335 Knots Altitude 8914 ft
13:12 Flaps:1º at 205 Knots
13:12 Flaps:2º at 198 Knots
13:12 Flaps:5º at 196 Knots
13:18 Gear Down: 171 Knots
13:18 Flaps:10º at 169 Knots
13:20 Flaps:15º at 160 Knots
13:20 Flaps:25º at 159 Knots
13:21 Flaps:30º at 165 Knots
13:21 Flaps:Full at 151 Knots
13:23 TOC
13:23 Fuel Weight: 4434 Lb
13:23 TouchDown:Rate -127 ft/min Speed: 139 Knots
13:23 VAT
SIM:LYTV 031300Z 16017KT 130V190 9999 FEW017 SCT023 BKN073 21/18 Q1005 NOSIG
13:23 Land
13:23 Wind:172º@009 Knots
13:23 Heading: 139º
13:23 Flight Duration: 01:28
13:23 Landing Weight: 132497 Lbs
13:23 POS N42º 24´ 06´´ E018º 43´ 35´´
13:28 Parking brakes on
13:28 Block to Block Duration: 01:48
13:28 Final Fuel: 4153 Lbls
13:28 Spent Fuel: 9226 Lbls
13:28 Flight Length: 537 NM
13:28 TOD Land Length: 173 NM

Text Link of Flight Log http://www.candanair.net/acars/logs/CXD15920191103113400.txt
   

[ Back ]